createdAt,value
2023-04-25T00:00:24.906Z,99545.81
2023-04-25T00:02:58.373Z,99555.92
2023-04-25T00:05:31.837Z,99549.43
2023-04-25T00:08:06.353Z,99546.36
2023-04-25T00:10:39.953Z,99552.80
2023-04-25T00:13:12.914Z,99548.33
2023-04-25T00:15:47.748Z,99547.39
2023-04-25T00:18:21.294Z,99545.59
2023-04-25T00:20:54.398Z,99541.18
2023-04-25T00:23:27.511Z,99542.04
2023-04-25T00:26:00.657Z,99540.30
2023-04-25T00:28:33.700Z,99538.11
2023-04-25T00:31:07.128Z,99539.05
2023-04-25T00:33:40.220Z,99533.80
2023-04-25T00:36:13.243Z,99532.00
2023-04-25T00:38:48.056Z,99532.92
2023-04-25T00:41:21.314Z,99522.83
2023-04-25T00:43:54.727Z,99530.67
2023-04-25T00:46:27.854Z,99521.44
2023-04-25T00:49:01.455Z,99515.71
2023-04-25T00:51:36.127Z,99514.34
2023-04-25T00:54:09.353Z,99513.47
2023-04-25T00:56:42.879Z,99513.86
2023-04-25T00:59:17.365Z,99510.79
2023-04-25T01:01:50.741Z,99505.44
2023-04-25T01:04:23.805Z,99500.09
2023-04-25T01:06:58.972Z,99501.79
2023-04-25T01:09:33.612Z,99501.84
2023-04-25T01:12:07.630Z,99494.47
2023-04-25T01:14:41.129Z,99498.99
2023-04-25T01:17:14.489Z,99483.98
2023-04-25T01:19:48.870Z,99487.38
2023-04-25T01:22:23.457Z,99483.34
2023-04-25T01:24:58.493Z,99486.22
2023-04-25T01:27:31.910Z,99476.88
2023-04-25T01:30:06.066Z,99473.22
2023-04-25T01:32:42.664Z,99475.30
2023-04-25T01:35:16.286Z,99470.86
2023-04-25T01:37:50.529Z,99470.70
2023-04-25T01:40:24.882Z,99465.88
2023-04-25T01:42:58.502Z,99461.84
2023-04-25T01:45:31.594Z,99461.73
2023-04-25T01:48:04.989Z,99458.48
2023-04-25T01:50:39.911Z,99457.55
2023-04-25T01:53:13.482Z,99457.59
2023-04-25T01:55:46.352Z,99450.08
2023-04-25T01:58:22.679Z,99446.90
2023-04-25T02:01:00.629Z,99443.56
2023-04-25T02:03:36.696Z,99442.14
2023-04-25T02:06:12.449Z,99440.38
2023-04-25T02:08:47.231Z,99436.40
2023-04-25T02:11:20.342Z,99434.60
2023-04-25T02:14:01.151Z,99434.86
2023-04-25T02:16:41.926Z,99431.16
2023-04-25T02:19:15.096Z,99435.66
2023-04-25T02:21:49.671Z,99431.20
2023-04-25T02:24:22.725Z,99434.83
2023-04-25T02:26:57.119Z,99429.48
2023-04-25T02:29:29.080Z,99426.05
2023-04-25T02:32:01.856Z,99423.60
2023-04-25T02:34:34.963Z,99422.78
2023-04-25T02:37:07.913Z,99419.80
2023-04-25T02:39:40.974Z,99422.09
2023-04-25T02:42:13.995Z,99424.46
2023-04-25T02:44:47.325Z,99428.22
2023-04-25T02:47:20.369Z,99430.89
2023-04-25T02:49:57.101Z,99426.91
2023-04-25T02:52:30.090Z,99427.77
2023-04-25T02:55:09.054Z,99429.13
2023-04-25T02:57:42.295Z,99425.26
2023-04-25T03:00:17.672Z,99424.34
2023-04-25T03:02:51.034Z,99419.59
2023-04-25T03:05:24.151Z,99425.71
2023-04-25T03:07:57.546Z,99418.29
2023-04-25T03:10:31.018Z,99418.77
2023-04-25T03:13:05.785Z,99417.97
2023-04-25T03:15:40.920Z,99428.76
2023-04-25T03:18:13.761Z,99422.16
2023-04-25T03:20:47.928Z,99430.50
2023-04-25T03:23:20.173Z,99430.50
2023-04-25T03:25:53.131Z,99428.27
2023-04-25T03:28:26.661Z,99425.71
2023-04-25T03:31:00.567Z,99422.33
2023-04-25T03:33:33.558Z,99424.95
2023-04-25T03:36:07.970Z,99417.97
2023-04-25T03:38:40.426Z,99422.81
2023-04-25T03:41:13.933Z,99425.06
2023-04-25T03:44:00.621Z,99423.81
2023-04-25T03:46:34.304Z,99421.20
2023-04-25T03:49:07.945Z,99419.95
2023-04-25T03:51:57.760Z,99425.67
2023-04-25T03:54:31.043Z,99422.62
2023-04-25T03:57:06.022Z,99423.11
2023-04-25T03:59:41.001Z,99421.85
2023-04-25T04:02:16.030Z,99424.59
2023-04-25T04:04:49.543Z,99419.43
2023-04-25T04:07:22.698Z,99420.73
2023-04-25T04:09:57.441Z,99417.13
2023-04-25T04:12:32.065Z,99417.88
2023-04-25T04:15:09.939Z,99416.19
2023-04-25T04:17:43.234Z,99414.45
2023-04-25T04:20:16.642Z,99413.63
2023-04-25T04:22:50.411Z,99405.72
2023-04-25T04:25:25.852Z,99408.70
2023-04-25T04:28:15.565Z,99405.80
2023-04-25T04:30:52.006Z,99411.06
2023-04-25T04:33:26.577Z,99406.22
2023-04-25T04:36:04.996Z,99410.69
2023-04-25T04:38:40.126Z,99405.52
2023-04-25T04:41:14.434Z,99406.02
2023-04-25T04:43:51.145Z,99407.39
2023-04-25T04:46:29.926Z,99403.47
2023-04-25T04:49:19.901Z,99406.10
2023-04-25T04:51:57.369Z,99401.38
2023-04-25T04:54:37.962Z,99407.31
2023-04-25T04:57:21.505Z,99405.06
2023-04-25T05:00:02.959Z,99406.37
2023-04-25T05:02:40.215Z,99395.41
2023-04-25T05:05:21.259Z,99405.06
2023-04-25T05:07:56.076Z,99397.45
2023-04-25T05:10:30.836Z,99398.68
2023-04-25T05:13:20.452Z,99397.29
2023-04-25T05:16:07.791Z,99394.79
2023-04-25T05:18:43.844Z,99393.59
2023-04-25T05:21:36.590Z,99392.66
2023-04-25T05:24:17.279Z,99396.27
2023-04-25T05:27:08.621Z,99386.84
2023-04-25T05:29:58.224Z,99390.17
2023-04-25T05:32:36.970Z,99382.88
2023-04-25T05:35:10.721Z,99387.73
2023-04-25T05:37:45.335Z,99379.18
2023-04-25T05:40:19.995Z,99378.47
2023-04-25T05:42:54.665Z,99380.04
2023-04-25T05:45:29.457Z,99379.61
2023-04-25T05:48:16.344Z,99376.78
2023-04-25T05:50:52.730Z,99375.69
2023-04-25T05:53:27.313Z,99364.95
2023-04-25T05:56:02.065Z,99366.94
2023-04-25T05:58:35.901Z,99369.72
2023-04-25T06:01:10.275Z,99368.56
2023-04-25T06:03:44.280Z,99364.15
2023-04-25T06:06:17.468Z,99366.34
2023-04-25T06:08:50.761Z,99368.52
2023-04-25T06:11:23.899Z,99365.09
2023-04-25T06:13:59.130Z,99359.61
2023-04-25T06:16:32.229Z,99361.08
2023-04-25T06:19:05.817Z,99365.98
2023-04-25T06:21:40.916Z,99366.57
2023-04-25T06:24:14.622Z,99360.64
2023-04-25T06:26:48.916Z,99361.20
2023-04-25T06:29:22.419Z,99357.27
2023-04-25T06:31:55.380Z,99359.28
2023-04-25T06:34:29.206Z,99351.65
2023-04-25T06:37:02.514Z,99353.53
2023-04-25T06:39:36.696Z,99355.00
2023-04-25T06:42:11.311Z,99359.20
2023-04-25T06:44:48.782Z,99354.13
2023-04-25T06:47:23.552Z,99356.37
2023-04-25T06:49:56.865Z,99355.38
2023-04-25T06:52:31.258Z,99354.07
2023-04-25T06:55:04.042Z,99354.18
2023-04-25T06:57:38.591Z,99362.33
2023-04-25T07:00:14.693Z,99358.05
2023-04-25T07:02:48.260Z,99359.08
2023-04-25T07:05:21.738Z,99363.44
2023-04-25T07:07:54.945Z,99357.44
2023-04-25T07:10:28.046Z,99357.44
2023-04-25T07:13:01.979Z,99360.11
2023-04-25T07:15:36.152Z,99363.27
2023-04-25T07:18:09.299Z,99363.38
2023-04-25T07:20:42.684Z,99365.34
2023-04-25T07:23:15.829Z,99370.52
2023-04-25T07:25:49.119Z,99360.45
2023-04-25T07:28:23.893Z,99368.52
2023-04-25T07:30:57.243Z,99370.48
2023-04-25T07:33:31.374Z,99371.48
2023-04-25T07:36:04.377Z,99370.02
2023-04-25T07:38:37.884Z,99373.91
2023-04-25T07:41:11.045Z,99363.52
2023-04-25T07:43:44.061Z,99365.54
2023-04-25T07:46:17.711Z,99363.98
2023-04-25T07:48:51.083Z,99360.83
2023-04-25T07:51:24.484Z,99363.08
2023-04-25T07:53:58.240Z,99361.13
2023-04-25T07:56:41.497Z,99363.38
2023-04-25T07:59:06.554Z,99362.02
2023-04-25T08:01:40.002Z,99361.34
2023-04-25T08:04:13.731Z,99363.45
2023-04-25T08:06:55.249Z,99363.16
2023-04-25T08:09:34.308Z,99359.85
2023-04-25T08:12:08.540Z,99361.94
2023-04-25T08:14:41.941Z,99357.95
2023-04-25T08:17:15.653Z,99353.61
2023-04-25T08:19:48.603Z,99347.38
2023-04-25T08:22:31.160Z,99352.02
2023-04-25T08:25:06.702Z,99345.27
2023-04-25T08:27:39.704Z,99348.82
2023-04-25T08:30:13.528Z,99344.84
2023-04-25T08:32:47.298Z,99346.58
2023-04-25T08:35:22.681Z,99343.66
2023-04-25T08:37:56.322Z,99336.88
2023-04-25T08:40:31.413Z,99343.30
2023-04-25T08:43:12.920Z,99340.89
2023-04-25T08:45:47.443Z,99339.14
2023-04-25T08:48:22.278Z,99340.27
2023-04-25T08:50:57.481Z,99334.03
2023-04-25T08:53:34.138Z,99340.16
2023-04-25T08:56:10.510Z,99332.67
2023-04-25T08:58:43.880Z,99328.55
2023-04-25T09:01:19.803Z,99329.66
2023-04-25T09:03:54.918Z,99322.68
2023-04-25T09:06:29.097Z,99320.38
2023-04-25T09:09:09.290Z,99316.85
2023-04-25T09:11:42.916Z,99318.98
2023-04-25T09:14:24.214Z,99313.92
2023-04-25T09:17:09.152Z,99314.92
2023-04-25T09:19:51.437Z,99309.76
2023-04-25T09:22:26.138Z,99320.77
2023-04-25T09:24:59.798Z,99310.51
2023-04-25T09:27:34.083Z,99310.34
2023-04-25T09:30:17.036Z,99303.49
2023-04-25T09:33:00.093Z,99309.33
2023-04-25T09:35:35.557Z,99306.05
2023-04-25T09:38:18.631Z,99312.19
2023-04-25T09:41:00.098Z,99306.66
2023-04-25T09:43:34.850Z,99310.23
2023-04-25T09:46:15.028Z,99310.75
2023-04-25T09:48:55.067Z,99306.80
2023-04-25T09:51:30.058Z,99303.80
2023-04-25T09:54:03.122Z,99301.57
2023-04-25T09:56:39.226Z,99305.11
2023-04-25T09:59:15.046Z,99306.77
2023-04-25T10:01:48.288Z,99308.63
2023-04-25T10:04:32.183Z,99309.97
2023-04-25T10:07:10.914Z,99305.48
2023-04-25T10:09:44.038Z,99313.31
2023-04-25T10:12:17.226Z,99312.77
2023-04-25T10:14:50.481Z,99316.57
2023-04-25T10:17:23.847Z,99315.04
2023-04-25T10:19:57.870Z,99307.05
2023-04-25T10:22:34.166Z,99302.08
2023-04-25T10:25:09.565Z,99313.88
2023-04-25T10:27:43.268Z,99300.25
2023-04-25T10:30:19.636Z,99303.90
2023-04-25T10:32:52.967Z,99305.29
2023-04-25T10:35:32.701Z,99300.58
2023-04-25T10:38:13.943Z,99305.58
2023-04-25T10:41:10.560Z,99307.36
2023-04-25T10:43:48.224Z,99303.17
2023-04-25T10:46:27.202Z,99314.53
2023-04-25T10:49:03.105Z,99313.58
2023-04-25T10:51:54.539Z,99303.64
2023-04-25T10:54:13.216Z,99309.01
2023-04-25T10:56:46.327Z,99307.87
2023-04-25T10:59:20.977Z,99310.23
2023-04-25T11:01:58.830Z,99300.83
2023-04-25T11:04:36.217Z,99302.04
2023-04-25T11:07:39.591Z,99296.12
2023-04-25T11:10:12.794Z,99297.13
2023-04-25T11:12:47.963Z,99302.89
2023-04-25T11:15:21.233Z,99306.91
2023-04-25T11:17:58.019Z,99301.95
2023-04-25T11:20:31.118Z,99302.70
2023-04-25T11:25:38.784Z,99302.84
2023-04-25T11:28:12.479Z,99301.44
2023-04-25T11:30:51.321Z,99296.38
2023-04-25T11:33:29.815Z,99302.95
2023-04-25T11:36:03.229Z,99299.48
2023-04-25T11:38:36.695Z,99294.63
2023-04-25T11:41:09.887Z,99289.36
2023-04-25T11:43:43.474Z,99296.84
2023-04-25T11:46:16.791Z,99290.06
2023-04-25T11:48:51.913Z,99298.05
2023-04-25T11:51:25.371Z,99298.05
2023-04-25T11:53:58.553Z,99301.44
2023-04-25T11:56:32.444Z,99304.81
2023-04-25T11:59:07.994Z,99304.54
2023-04-25T12:01:45.966Z,99293.84
2023-04-25T12:04:27.423Z,99294.98
2023-04-25T12:07:02.996Z,99301.89
2023-04-25T12:09:37.139Z,99289.58
2023-04-25T12:12:12.749Z,99297.17
2023-04-25T12:14:52.502Z,99295.09
2023-04-25T12:17:26.257Z,99287.73
2023-04-25T12:19:59.381Z,99297.45
2023-04-25T12:22:33.238Z,99299.17
2023-04-25T12:25:08.817Z,99296.54
2023-04-25T12:27:45.607Z,99288.61
2023-04-25T12:30:18.868Z,99296.88
2023-04-25T12:32:52.293Z,99296.03
2023-04-25T12:35:25.172Z,99299.03
2023-04-25T12:37:58.238Z,99297.72
2023-04-25T12:40:31.327Z,99295.62
2023-04-25T12:43:04.544Z,99290.06
2023-04-25T12:45:37.667Z,99294.72
2023-04-25T12:48:11.456Z,99292.56
2023-04-25T12:50:44.969Z,99293.94
2023-04-25T12:53:20.786Z,99295.33
2023-04-25T12:58:28.581Z,99295.46
2023-04-25T13:01:01.639Z,99297.11
2023-04-25T13:03:36.358Z,99290.56
2023-04-25T13:06:09.398Z,99286.65
2023-04-25T13:08:43.160Z,99291.07
2023-04-25T13:11:19.070Z,99284.55
2023-04-25T13:13:52.307Z,99276.84
2023-04-25T13:16:26.247Z,99280.86
2023-04-25T13:19:00.324Z,99286.53
2023-04-25T13:21:34.056Z,99283.87
2023-04-25T13:24:07.238Z,99285.28
2023-04-25T13:26:40.853Z,99289.70
2023-04-25T13:29:15.196Z,99290.67
2023-04-25T13:31:48.245Z,99294.21
2023-04-25T13:34:22.109Z,99296.84
2023-04-25T13:36:55.924Z,99294.59
2023-04-25T13:39:29.154Z,99290.08
2023-04-25T13:42:03.196Z,99282.95
2023-04-25T13:44:36.157Z,99289.03
2023-04-25T13:47:09.264Z,99290.39
2023-04-25T13:49:42.427Z,99288.62
2023-04-25T13:52:15.261Z,99287.38
2023-04-25T13:54:48.351Z,99288.76
2023-04-25T13:57:21.649Z,99288.82
2023-04-25T13:59:55.090Z,99287.97
2023-04-25T14:02:28.656Z,99287.95
2023-04-25T14:05:02.020Z,99292.17
2023-04-25T14:07:36.524Z,99289.88
2023-04-25T14:10:10.183Z,99291.64
2023-04-25T14:12:43.235Z,99293.70
2023-04-25T14:15:16.448Z,99288.27
2023-04-25T14:17:49.697Z,99293.10
2023-04-25T14:20:24.334Z,99298.88
2023-04-25T14:22:58.861Z,99296.23
2023-04-25T14:25:33.175Z,99298.43
2023-04-25T14:28:05.302Z,99285.55
2023-04-25T14:30:38.097Z,99289.42
2023-04-25T14:33:10.906Z,99297.25
2023-04-25T14:35:43.914Z,99297.69
2023-04-25T14:38:17.155Z,99289.45
2023-04-25T14:40:50.353Z,99289.56
2023-04-25T14:43:24.187Z,99291.78
2023-04-25T14:45:58.580Z,99298.46
2023-04-25T14:48:32.475Z,99285.53
2023-04-25T14:51:05.594Z,99285.02
2023-04-25T14:53:38.699Z,99292.50
2023-04-25T14:56:11.871Z,99282.74
2023-04-25T14:58:45.186Z,99284.75
2023-04-25T15:01:18.311Z,99290.69
2023-04-25T15:03:52.706Z,99290.34
2023-04-25T15:06:27.586Z,99288.59
2023-04-25T15:09:01.601Z,99293.67
2023-04-25T15:11:34.749Z,99297.03
2023-04-25T15:14:07.700Z,99298.59
2023-04-25T15:16:40.762Z,99291.33
2023-04-25T15:19:13.734Z,99291.18
2023-04-25T15:21:47.047Z,99288.31
2023-04-25T15:24:20.272Z,99293.02
2023-04-25T15:26:53.608Z,99293.74
2023-04-25T15:29:27.517Z,99293.17
2023-04-25T15:32:01.079Z,99283.36
2023-04-25T15:34:35.275Z,99282.30
2023-04-25T15:37:08.887Z,99282.98
2023-04-25T15:39:41.716Z,99284.09
2023-04-25T15:42:14.589Z,99287.03
2023-04-25T15:44:47.570Z,99286.52
2023-04-25T15:47:21.116Z,99278.05
2023-04-25T15:49:53.909Z,99279.77
2023-04-25T15:52:27.917Z,99279.80
2023-04-25T15:55:01.737Z,99282.33
2023-04-25T15:57:37.082Z,99279.93
2023-04-25T16:00:12.401Z,99287.34
2023-04-25T16:02:46.130Z,99289.10
2023-04-25T16:05:19.922Z,99286.88
2023-04-25T16:07:54.156Z,99285.52
2023-04-25T16:10:26.731Z,99291.63
2023-04-25T16:12:59.707Z,99298.16
2023-04-25T16:15:35.084Z,99299.73
2023-04-25T16:18:08.706Z,99300.03
2023-04-25T16:20:42.459Z,99305.20
2023-04-25T16:23:15.814Z,99305.17
2023-04-25T16:25:48.728Z,99304.66
2023-04-25T16:28:21.750Z,99308.60
2023-04-25T16:30:54.696Z,99308.60
2023-04-25T16:33:28.085Z,99314.30
2023-04-25T16:36:00.873Z,99316.41
2023-04-25T16:38:33.949Z,99312.88
2023-04-25T16:41:07.708Z,99313.12
2023-04-25T16:43:43.534Z,99313.00
2023-04-25T16:46:18.111Z,99320.38
2023-04-25T16:48:51.435Z,99328.09
2023-04-25T16:51:24.660Z,99332.72
2023-04-25T16:53:57.930Z,99332.63
2023-04-25T16:56:31.182Z,99333.50
2023-04-25T16:59:04.276Z,99343.05
2023-04-25T17:01:37.926Z,99349.02
2023-04-25T17:04:11.357Z,99350.17
2023-04-25T17:06:45.058Z,99350.60
2023-04-25T17:09:19.142Z,99351.88
2023-04-25T17:11:52.170Z,99354.86
2023-04-25T17:14:25.600Z,99355.25
2023-04-25T17:16:58.755Z,99354.81
2023-04-25T17:19:32.501Z,99359.59
2023-04-25T17:22:05.384Z,99362.65
2023-04-25T17:24:40.148Z,99363.48
2023-04-25T17:27:13.376Z,99368.73
2023-04-25T17:29:46.766Z,99364.23
2023-04-25T17:32:19.908Z,99368.91
2023-04-25T17:34:53.040Z,99376.66
2023-04-25T17:37:28.151Z,99382.66
2023-04-25T17:40:01.208Z,99379.06
2023-04-25T17:42:34.779Z,99385.53
2023-04-25T17:45:09.752Z,99386.76
2023-04-25T17:47:42.801Z,99375.66
2023-04-25T17:50:17.180Z,99387.32
2023-04-25T17:52:50.236Z,99390.59
2023-04-25T17:55:24.099Z,99392.24
2023-04-25T17:57:58.158Z,99391.23
2023-04-25T18:00:32.791Z,99397.40
2023-04-25T18:03:05.763Z,99396.04
2023-04-25T18:05:39.131Z,99396.34
2023-04-25T18:08:12.166Z,99401.00
2023-04-25T18:10:45.138Z,99398.28
2023-04-25T18:13:18.536Z,99401.64
2023-04-25T18:15:52.185Z,99401.45
2023-04-25T18:18:27.253Z,99406.25
2023-04-25T18:21:01.539Z,99393.86
2023-04-25T18:23:36.817Z,99402.65
2023-04-25T18:26:10.045Z,99398.96
2023-04-25T18:28:43.423Z,99405.80
2023-04-25T18:31:17.738Z,99405.17
2023-04-25T18:33:51.053Z,99409.06
2023-04-25T18:36:24.568Z,99412.11
2023-04-25T18:39:08.662Z,99409.44
2023-04-25T18:41:53.739Z,99410.35
2023-04-25T18:44:13.251Z,99407.20
2023-04-25T18:46:47.494Z,99407.14
2023-04-25T18:49:19.513Z,99406.99
2023-04-25T18:51:52.376Z,99398.20
2023-04-25T18:54:25.718Z,99403.69
2023-04-25T18:57:00.522Z,99408.43
2023-04-25T18:59:34.671Z,99413.14
2023-04-25T19:02:08.337Z,99411.63
2023-04-25T19:04:41.579Z,99412.72
2023-04-25T19:07:15.336Z,99416.44
2023-04-25T19:09:48.241Z,99423.27
2023-04-25T19:12:22.334Z,99422.60
2023-04-25T19:14:55.671Z,99425.94
2023-04-25T19:17:30.534Z,99431.95
2023-04-25T19:20:04.524Z,99428.72
2023-04-25T19:22:37.758Z,99432.53
2023-04-25T19:25:11.786Z,99427.19
2023-04-25T19:27:45.308Z,99423.94
2023-04-25T19:30:18.158Z,99421.16
2023-04-25T19:32:51.707Z,99414.50
2023-04-25T19:35:24.684Z,99413.13
2023-04-25T19:37:57.932Z,99409.25
2023-04-25T19:40:31.309Z,99406.69
2023-04-25T19:43:04.883Z,99397.13
2023-04-25T19:45:38.009Z,99391.03
2023-04-25T19:48:12.054Z,99393.66
2023-04-25T19:50:45.096Z,99390.64
2023-04-25T19:53:17.878Z,99384.59
2023-04-25T19:55:51.256Z,99381.63
2023-04-25T19:58:24.699Z,99380.32
2023-04-25T20:01:01.134Z,99379.06
2023-04-25T20:03:35.143Z,99382.56
2023-04-25T20:06:08.341Z,99376.53
2023-04-25T20:08:42.190Z,99377.90
2023-04-25T20:11:15.937Z,99384.50
2023-04-25T20:13:49.107Z,99387.46
2023-04-25T20:16:22.507Z,99390.86
2023-04-25T20:18:55.784Z,99393.70
2023-04-25T20:21:29.971Z,99391.09
2023-04-25T20:24:03.561Z,99399.80
2023-04-25T20:26:38.494Z,99401.17
2023-04-25T20:29:11.534Z,99410.73
2023-04-25T20:31:44.799Z,99414.61
2023-04-25T20:34:20.104Z,99413.73
2023-04-25T20:36:53.415Z,99412.41
2023-04-25T20:39:27.274Z,99412.04
2023-04-25T20:42:00.029Z,99405.09
2023-04-25T20:44:33.201Z,99408.28
2023-04-25T20:47:08.827Z,99413.61
2023-04-25T20:49:41.189Z,99411.75
2023-04-25T20:52:14.303Z,99412.47
2023-04-25T20:54:52.286Z,99409.62
2023-04-25T20:57:25.281Z,99413.39
2023-04-25T21:00:00.043Z,99409.19
2023-04-25T21:02:33.144Z,99413.86
2023-04-25T21:05:07.137Z,99416.25
2023-04-25T21:07:41.197Z,99416.45
2023-04-25T21:10:15.886Z,99418.34
2023-04-25T21:12:49.733Z,99421.59
2023-04-25T21:15:24.911Z,99423.36
2023-04-25T21:17:57.807Z,99422.19
2023-04-25T21:20:31.066Z,99422.31
2023-04-25T21:23:05.817Z,99418.42
2023-04-25T21:25:39.253Z,99426.52
2023-04-25T21:28:12.659Z,99434.54
2023-04-25T21:30:46.955Z,99425.56
2023-04-25T21:33:19.948Z,99430.55
2023-04-25T21:35:53.642Z,99424.45
2023-04-25T21:38:26.914Z,99430.22
2023-04-25T21:41:00.436Z,99425.16
2023-04-25T21:43:33.708Z,99427.64
2023-04-25T21:46:22.499Z,99433.69
2023-04-25T21:48:42.016Z,99430.00
2023-04-25T21:51:15.207Z,99427.72
2023-04-25T21:53:48.101Z,99428.08
2023-04-25T21:56:21.477Z,99429.74
2023-04-25T21:58:54.416Z,99423.86
2023-04-25T22:01:28.812Z,99428.27
2023-04-25T22:04:01.777Z,99422.09
2023-04-25T22:06:34.893Z,99425.40
2023-04-25T22:09:07.958Z,99433.92
2023-04-25T22:11:41.390Z,99432.48
2023-04-25T22:14:15.158Z,99428.86
2023-04-25T22:16:50.119Z,99437.51
2023-04-25T22:19:23.083Z,99441.78
2023-04-25T22:21:56.295Z,99444.76
2023-04-25T22:24:30.216Z,99450.41
2023-04-25T22:27:03.289Z,99450.73
2023-04-25T22:29:37.231Z,99452.87
2023-04-25T22:32:10.284Z,99449.78
2023-04-25T22:34:43.454Z,99452.25
2023-04-25T22:37:17.136Z,99452.19
2023-04-25T22:39:50.086Z,99453.49
2023-04-25T22:42:23.263Z,99459.66
2023-04-25T22:44:56.182Z,99451.90
2023-04-25T22:47:29.786Z,99457.68
2023-04-25T22:50:04.182Z,99455.88
2023-04-25T22:52:37.548Z,99452.45
2023-04-25T22:55:12.619Z,99453.20
2023-04-25T22:57:45.705Z,99452.39
2023-04-25T23:00:22.523Z,99453.83
2023-04-25T23:02:55.835Z,99450.73
2023-04-25T23:05:29.071Z,99454.51
2023-04-25T23:08:02.303Z,99452.25
2023-04-25T23:10:37.257Z,99452.05
2023-04-25T23:13:10.619Z,99446.84
2023-04-25T23:15:43.616Z,99444.84
2023-04-25T23:18:16.940Z,99449.92
2023-04-25T23:20:50.312Z,99445.13
2023-04-25T23:23:23.721Z,99447.73
2023-04-25T23:25:58.188Z,99448.62
2023-04-25T23:28:31.642Z,99449.33
2023-04-25T23:31:12.301Z,99457.09
2023-04-25T23:33:45.264Z,99461.01
2023-04-25T23:36:21.632Z,99466.16
2023-04-25T23:38:56.263Z,99467.81
2023-04-25T23:41:29.147Z,99463.41
2023-04-25T23:44:03.681Z,99469.86
2023-04-25T23:46:36.913Z,99465.31
2023-04-25T23:49:10.186Z,99473.57
2023-04-25T23:51:43.552Z,99473.57
2023-04-25T23:54:16.819Z,99474.73
2023-04-25T23:56:49.731Z,99474.59
2023-04-25T23:59:22.782Z,99476.56
